createdAt,value
2018-05-21T00:02:07.029Z,13.28
2018-05-21T00:13:10.183Z,13.11
2018-05-21T00:24:12.645Z,13.28
2018-05-21T00:35:12.335Z,13.25
2018-05-21T00:46:16.662Z,13.24
2018-05-21T00:57:15.857Z,13.38
2018-05-21T01:08:18.895Z,13.50
2018-05-21T01:19:18.409Z,13.53
2018-05-21T01:30:20.091Z,13.15
2018-05-21T01:41:18.526Z,13.02
2018-05-21T01:52:18.234Z,12.89
2018-05-21T02:03:18.824Z,13.06
2018-05-21T02:14:19.713Z,13.00
2018-05-21T02:25:21.450Z,13.07
2018-05-21T02:36:29.857Z,13.18
2018-05-21T02:47:33.170Z,13.28
2018-05-21T02:58:31.688Z,13.11
2018-05-21T03:09:31.866Z,13.29
2018-05-21T03:20:35.878Z,13.36
2018-05-21T03:31:38.431Z,13.47
2018-05-21T03:42:38.154Z,13.81
2018-05-21T03:53:37.947Z,13.89
2018-05-21T04:04:38.021Z,13.92
2018-05-21T04:15:42.222Z,13.86
2018-05-21T04:26:43.558Z,13.89
2018-05-21T04:37:42.519Z,14.24
2018-05-21T04:48:46.343Z,13.98
2018-05-21T04:59:44.369Z,14.13
2018-05-21T05:10:42.822Z,14.05
2018-05-21T05:21:41.934Z,14.01
2018-05-21T05:32:43.578Z,14.32
2018-05-21T05:43:45.422Z,15.05
2018-05-21T05:54:48.368Z,15.39
2018-05-21T06:05:47.497Z,15.34
2018-05-21T06:16:49.631Z,15.03
2018-05-21T06:27:47.478Z,15.23
2018-05-21T06:38:50.901Z,15.75
2018-05-21T06:49:46.913Z,16.10
2018-05-21T07:00:47.285Z,16.40
2018-05-21T07:11:48.299Z,17.02
2018-05-21T07:22:47.293Z,17.39
2018-05-21T07:33:49.114Z,16.96
2018-05-21T07:44:50.472Z,17.40
2018-05-21T07:55:48.730Z,17.57
2018-05-21T08:06:49.939Z,17.84
2018-05-21T08:17:44.283Z,18.07
2018-05-21T08:28:47.085Z,17.96
2018-05-21T08:39:46.729Z,18.03
2018-05-21T08:50:43.316Z,18.28
2018-05-21T09:01:46.250Z,18.14
2018-05-21T09:12:48.799Z,18.29
2018-05-21T09:23:47.149Z,18.86
2018-05-21T09:34:49.719Z,18.97
2018-05-21T09:45:46.747Z,19.36
2018-05-21T09:56:37.629Z,19.72
2018-05-21T10:07:35.985Z,19.72
2018-05-21T10:18:40.859Z,19.95
2018-05-21T10:29:32.346Z,20.28
2018-05-21T10:40:30.190Z,19.86
2018-05-21T10:51:23.451Z,20.19
2018-05-21T11:02:24.099Z,21.02
2018-05-21T11:13:24.428Z,21.89
2018-05-21T11:24:29.663Z,21.92
2018-05-21T11:35:31.609Z,24.67
2018-05-21T11:46:27.765Z,21.60
2018-05-21T11:57:24.413Z,21.79
2018-05-21T12:08:22.321Z,21.38
2018-05-21T12:19:29.556Z,21.72
2018-05-21T12:30:36.218Z,22.78
2018-05-21T12:41:37.798Z,21.86
2018-05-21T12:52:31.153Z,21.11
2018-05-21T13:03:33.160Z,20.57
2018-05-21T13:14:26.060Z,20.19
2018-05-21T13:25:21.434Z,20.27
2018-05-21T13:36:21.574Z,20.12
2018-05-21T13:47:24.233Z,20.20
2018-05-21T13:58:28.509Z,20.26
2018-05-21T14:09:27.048Z,20.23
2018-05-21T14:20:38.124Z,19.61
2018-05-21T14:31:36.313Z,19.42
2018-05-21T14:42:37.364Z,19.61
2018-05-21T14:53:37.391Z,20.80
2018-05-21T15:04:45.641Z,22.54
2018-05-21T15:15:50.525Z,23.78
2018-05-21T15:26:48.138Z,21.59
2018-05-21T15:37:44.400Z,20.53
2018-05-21T15:48:42.223Z,19.45
2018-05-21T15:59:38.902Z,18.40
2018-05-21T16:10:37.959Z,18.07
2018-05-21T16:21:33.592Z,17.60
2018-05-21T16:32:28.084Z,17.81
2018-05-21T16:43:31.068Z,17.79
2018-05-21T16:54:25.942Z,17.73
2018-05-21T17:05:23.648Z,18.02
2018-05-21T17:16:20.693Z,17.96
2018-05-21T17:27:16.672Z,17.53
2018-05-21T17:38:16.749Z,17.28
2018-05-21T17:49:15.999Z,17.30
2018-05-21T18:00:12.410Z,17.21
2018-05-21T18:11:11.148Z,16.90
2018-05-21T18:22:05.322Z,16.50
2018-05-21T18:33:03.803Z,16.12
2018-05-21T18:44:01.657Z,16.03
2018-05-21T18:54:59.197Z,16.03
2018-05-21T19:05:58.447Z,15.97
2018-05-21T19:16:57.559Z,15.82
2018-05-21T19:27:56.451Z,15.61
2018-05-21T19:38:53.476Z,15.28
2018-05-21T19:49:49.902Z,15.09
2018-05-21T20:00:46.808Z,14.83
2018-05-21T20:11:44.217Z,14.83
2018-05-21T20:22:46.586Z,14.64
2018-05-21T20:33:42.815Z,14.27
2018-05-21T20:44:36.353Z,13.98
2018-05-21T20:55:36.780Z,13.80
2018-05-21T21:06:37.567Z,13.48
2018-05-21T21:17:37.885Z,13.27
2018-05-21T21:28:32.436Z,13.00
2018-05-21T21:39:25.875Z,12.91
2018-05-21T21:50:25.314Z,12.81
2018-05-21T22:01:24.127Z,12.89
2018-05-21T22:12:24.876Z,12.55
2018-05-21T22:23:28.303Z,12.39
2018-05-21T22:34:29.956Z,12.23
2018-05-21T22:45:33.475Z,12.31
2018-05-21T22:56:30.785Z,12.36
2018-05-21T23:07:33.342Z,12.03
2018-05-21T23:18:32.646Z,11.79
2018-05-21T23:29:32.270Z,11.86
2018-05-21T23:40:35.814Z,11.61
2018-05-21T23:51:35.553Z,11.56
